Time;durP1;ratioP1;P1;durP2;ratioP2;P2;SDS_P1;SDS_P2;PMS_P1;PMS_P2;Temp;Humidity;BMP_temperature;BMP_pressure;BME280_temperature;BME280_humidity;BME280_pressure;Samples;Min_cycle;Max_cycle;Signal;HPM_P1;HPM_P2
2022/04/30 00:02:00;;;;;;;13.00;5.65;;;;;;;;;;5005453;28;20021;-71
2022/04/30 00:04:25;;;;;;;9.30;4.95;;;;;;;;;;5001302;28;20084;-72
2022/04/30 00:06:51;;;;;;;8.98;4.85;;;;;;;;;;4994120;28;20033;-72
2022/04/30 00:09:16;;;;;;;14.13;6.13;;;;;;;;;;5001837;28;20710;-72
2022/04/30 00:11:41;;;;;;;14.73;5.35;;;;;;;;;;4997283;28;20280;-72
2022/04/30 00:14:06;;;;;;;9.30;5.63;;;;;;;;;;4997479;28;20279;-71
2022/04/30 00:16:31;;;;;;;9.83;5.27;;;;;;;;;;4988441;28;20300;-71
2022/04/30 00:18:57;;;;;;;8.77;4.72;;;;;;;;;;4998061;28;20279;-71
2022/04/30 00:21:22;;;;;;;10.75;5.32;;;;;;;;;;5000694;28;20271;-71
2022/04/30 00:23:47;;;;;;;13.10;5.40;;;;;;;;;;4997081;28;20061;-71
2022/04/30 00:26:12;;;;;;;10.10;4.88;;;;;;;;;;4997354;28;20797;-72
2022/04/30 00:28:38;;;;;;;7.22;4.97;;;;;;;;;;4983235;28;20439;-72
2022/04/30 00:31:03;;;;;;;12.53;5.63;;;;;;;;;;5000833;28;20354;-72
2022/04/30 00:33:29;;;;;;;10.23;4.85;;;;;;;;;;4998331;28;20760;-72
2022/04/30 00:35:55;;;;;;;7.55;4.90;;;;;;;;;;5001086;28;20025;-72
2022/04/30 00:38:20;;;;;;;8.20;3.88;;;;;;;;;;4997400;28;20037;-72
2022/04/30 00:40:45;;;;;;;9.43;4.60;;;;;;;;;;4999973;28;20323;-72
2022/04/30 00:43:10;;;;;;;10.82;4.80;;;;;;;;;;4998144;28;20811;-72
2022/04/30 00:45:35;;;;;;;9.13;5.28;;;;;;;;;;4997202;28;20029;-72
2022/04/30 00:48:01;;;;;;;10.80;4.73;;;;;;;;;;4999508;28;20085;-72
2022/04/30 00:50:27;;;;;;;7.47;4.40;;;;;;;;;;4999326;28;20367;-72
2022/04/30 00:52:55;;;;;;;8.88;4.38;;;;;;;;;;4981071;28;20153;-72
2022/04/30 00:55:22;;;;;;;8.65;4.10;;;;;;;;;;4998068;28;20079;-72
2022/04/30 00:57:48;;;;;;;8.77;3.92;;;;;;;;;;4994771;28;20034;-72
2022/04/30 01:00:13;;;;;;;7.95;4.88;;;;;;;;;;4992903;28;20030;-72
2022/04/30 01:02:39;;;;;;;7.47;4.57;;;;;;;;;;4998020;28;20758;-72
2022/04/30 01:05:04;;;;;;;8.47;4.30;;;;;;;;;;4998431;28;20053;-72
2022/04/30 01:07:30;;;;;;;11.35;4.85;;;;;;;;;;4997873;28;20669;-72
2022/04/30 01:09:55;;;;;;;10.95;4.85;;;;;;;;;;4995899;28;20015;-72
2022/04/30 01:12:21;;;;;;;8.73;4.07;;;;;;;;;;4997973;28;20096;-72
2022/04/30 01:14:47;;;;;;;6.15;4.30;;;;;;;;;;5002088;28;20487;-72
2022/04/30 01:17:12;;;;;;;8.82;4.00;;;;;;;;;;4975468;28;20030;-72
2022/04/30 01:19:43;;;;;;;10.93;4.63;;;;;;;;;;5003335;28;20128;-72
2022/04/30 01:22:15;;;;;;;10.07;4.75;;;;;;;;;;5002028;28;20275;-72
2022/04/30 01:24:40;;;;;;;10.13;4.80;;;;;;;;;;5004720;28;20112;-72
2022/04/30 01:27:06;;;;;;;5.63;3.85;;;;;;;;;;5002919;28;20461;-72
2022/04/30 01:29:33;;;;;;;8.98;5.03;;;;;;;;;;5006258;28;20539;-72
2022/04/30 01:37:27;;;;;;;11.13;4.25;;;;;;;;;;5004667;28;19920;-72
2022/04/30 01:39:56;;;;;;;9.68;4.55;;;;;;;;;;5004400;28;20034;-72
2022/04/30 01:42:22;;;;;;;8.75;4.80;;;;;;;;;;5003093;28;20033;-72
2022/04/30 01:44:48;;;;;;;13.63;5.38;;;;;;;;;;5000894;28;20068;-72
2022/04/30 01:47:14;;;;;;;11.15;4.90;;;;;;;;;;5007596;28;20353;-72
2022/04/30 01:49:39;;;;;;;13.82;4.65;;;;;;;;;;5003497;28;20091;-72
2022/04/30 01:52:08;;;;;;;9.00;4.37;;;;;;;;;;5008026;28;20451;-72
2022/04/30 01:54:33;;;;;;;9.90;4.13;;;;;;;;;;5000403;28;20271;-72
2022/04/30 01:56:59;;;;;;;11.73;4.80;;;;;;;;;;5002702;28;20049;-72
2022/04/30 01:59:24;;;;;;;12.88;4.85;;;;;;;;;;4998556;28;20355;-72
2022/04/30 02:01:49;;;;;;;9.32;4.80;;;;;;;;;;5006979;28;20396;-72
2022/04/30 02:04:14;;;;;;;8.98;5.10;;;;;;;;;;5020225;28;20352;-72
2022/04/30 02:06:39;;;;;;;12.50;4.97;;;;;;;;;;5013889;28;20112;-72
2022/04/30 02:09:05;;;;;;;11.43;5.47;;;;;;;;;;5005696;28;20024;-72
2022/04/30 02:11:30;;;;;;;9.75;4.97;;;;;;;;;;5013923;28;20748;-72
2022/04/30 02:13:56;;;;;;;10.27;4.90;;;;;;;;;;5007653;28;20022;-72
2022/04/30 02:16:22;;;;;;;9.45;5.20;;;;;;;;;;5013540;28;20022;-72
2022/04/30 02:18:49;;;;;;;11.65;4.82;;;;;;;;;;5013622;28;20021;-72
2022/04/30 02:21:16;;;;;;;12.57;5.15;;;;;;;;;;5010576;28;20076;-72
2022/04/30 02:23:41;;;;;;;11.23;4.93;;;;;;;;;;5007933;28;20068;-72
2022/04/30 02:26:09;;;;;;;12.13;5.20;;;;;;;;;;5015002;28;20443;-72
2022/04/30 02:28:34;;;;;;;11.85;5.28;;;;;;;;;;5004092;28;20109;-72
2022/04/30 02:31:00;;;;;;;11.77;5.05;;;;;;;;;;5009505;28;20419;-72
2022/04/30 02:33:25;;;;;;;12.15;5.60;;;;;;;;;;5005517;28;20080;-72
2022/04/30 02:35:50;;;;;;;12.73;5.10;;;;;;;;;;5001934;28;20033;-72
2022/04/30 02:38:15;;;;;;;10.73;4.97;;;;;;;;;;4997634;28;20288;-72
2022/04/30 02:40:41;;;;;;;10.10;4.95;;;;;;;;;;4999696;28;20323;-72
2022/04/30 02:43:07;;;;;;;11.23;5.40;;;;;;;;;;4997511;28;20462;-72
2022/04/30 02:45:33;;;;;;;12.90;5.53;;;;;;;;;;5000381;28;20041;-72
2022/04/30 02:47:58;;;;;;;10.90;5.45;;;;;;;;;;5000586;28;20061;-72
2022/04/30 02:50:23;;;;;;;13.27;5.40;;;;;;;;;;5001784;28;20022;-72
2022/04/30 02:52:49;;;;;;;12.35;5.82;;;;;;;;;;4996464;28;20026;-72
2022/04/30 02:55:15;;;;;;;15.70;5.60;;;;;;;;;;5002556;28;20587;-72
2022/04/30 03:00:25;;;;;;;12.65;5.72;;;;;;;;;;5001752;28;20358;-72
2022/04/30 03:02:50;;;;;;;17.83;6.22;;;;;;;;;;5004329;28;20034;-72
2022/04/30 03:05:16;;;;;;;17.35;5.90;;;;;;;;;;5009321;28;20411;-72
2022/04/30 03:07:42;;;;;;;18.50;6.25;;;;;;;;;;5007464;28;20345;-72
2022/04/30 03:10:07;;;;;;;12.43;5.97;;;;;;;;;;5002322;28;20018;-72
2022/04/30 03:12:32;;;;;;;13.30;6.63;;;;;;;;;;5003208;28;20026;-72
2022/04/30 03:14:57;;;;;;;12.07;6.38;;;;;;;;;;5002948;28;20026;-72
2022/04/30 03:22:50;;;;;;;16.25;6.95;;;;;;;;;;5003043;28;20029;-72
2022/04/30 03:25:17;;;;;;;13.32;6.47;;;;;;;;;;5007377;28;20033;-72
2022/04/30 03:27:42;;;;;;;21.45;6.70;;;;;;;;;;5003257;28;20275;-72
2022/04/30 03:30:07;;;;;;;13.70;6.23;;;;;;;;;;5004510;28;20034;-72
2022/04/30 03:32:32;;;;;;;16.65;6.38;;;;;;;;;;5003956;28;20259;-72
2022/04/30 03:34:58;;;;;;;13.65;6.65;;;;;;;;;;5007381;28;20034;-72
2022/04/30 03:37:23;;;;;;;21.10;6.43;;;;;;;;;;5002670;28;20283;-72
2022/04/30 03:39:48;;;;;;;14.87;6.77;;;;;;;;;;5008110;28;20053;-72
2022/04/30 03:42:13;;;;;;;15.80;6.88;;;;;;;;;;5006145;28;20271;-72
2022/04/30 03:44:38;;;;;;;14.47;7.20;;;;;;;;;;5006597;28;20657;-72
2022/04/30 03:47:03;;;;;;;15.02;7.22;;;;;;;;;;5000103;28;20260;-72
2022/04/30 03:49:29;;;;;;;13.75;6.63;;;;;;;;;;5007648;28;20418;-72
2022/04/30 03:51:54;;;;;;;14.75;6.80;;;;;;;;;;5003853;28;20076;-72
2022/04/30 03:54:20;;;;;;;16.30;7.22;;;;;;;;;;5008718;28;20286;-72
2022/04/30 03:56:45;;;;;;;13.63;6.68;;;;;;;;;;5009171;28;20358;-72
2022/04/30 03:59:10;;;;;;;16.17;6.53;;;;;;;;;;4995413;28;20619;-72
2022/04/30 04:01:35;;;;;;;18.17;6.80;;;;;;;;;;4997654;28;21556;-72
2022/04/30 04:04:01;;;;;;;15.82;7.55;;;;;;;;;;5005729;28;20291;-72
2022/04/30 04:06:26;;;;;;;17.73;6.88;;;;;;;;;;4999421;28;20033;-72
2022/04/30 04:08:52;;;;;;;14.13;7.05;;;;;;;;;;5002834;28;20029;-72
2022/04/30 04:11:17;;;;;;;16.77;7.22;;;;;;;;;;5007535;28;20053;-72
2022/04/30 04:19:10;;;;;;;19.33;7.55;;;;;;;;;;5000542;28;20118;-72
2022/04/30 04:21:35;;;;;;;17.08;6.47;;;;;;;;;;5001225;28;20160;-72
2022/04/30 04:26:44;;;;;;;19.25;7.35;;;;;;;;;;4998874;28;20041;-72
2022/04/30 04:29:10;;;;;;;16.80;6.60;;;;;;;;;;4996987;28;20164;-72
2022/04/30 04:31:35;;;;;;;14.02;6.78;;;;;;;;;;4997797;28;20119;-72
2022/04/30 04:34:00;;;;;;;17.67;7.72;;;;;;;;;;4982852;28;20044;-72
2022/04/30 04:36:26;;;;;;;16.75;7.22;;;;;;;;;;5002319;28;20490;-72
2022/04/30 04:38:51;;;;;;;18.98;7.65;;;;;;;;;;4998187;28;20026;-72
2022/04/30 04:41:16;;;;;;;16.20;7.20;;;;;;;;;;4998044;28;20049;-72
2022/04/30 04:43:41;;;;;;;14.32;7.25;;;;;;;;;;4998804;28;20337;-72
2022/04/30 04:46:07;;;;;;;20.70;7.87;;;;;;;;;;4998204;28;20279;-72
2022/04/30 04:48:32;;;;;;;14.35;6.80;;;;;;;;;;4999618;28;21159;-72
2022/04/30 04:50:58;;;;;;;14.25;7.03;;;;;;;;;;4998661;28;20017;-72
2022/04/30 04:53:23;;;;;;;17.17;8.00;;;;;;;;;;4997749;28;20167;-72
2022/04/30 04:55:49;;;;;;;19.27;8.60;;;;;;;;;;5000288;28;20491;-72
2022/04/30 04:58:14;;;;;;;20.50;8.10;;;;;;;;;;5001239;28;20030;-72
2022/04/30 05:00:39;;;;;;;18.13;7.95;;;;;;;;;;5006904;28;20052;-72
2022/04/30 05:03:07;;;;;;;18.73;7.55;;;;;;;;;;5001063;28;20547;-72
2022/04/30 05:05:32;;;;;;;21.35;8.40;;;;;;;;;;4999975;28;20033;-72
2022/04/30 05:07:57;;;;;;;17.70;7.25;;;;;;;;;;5001256;28;20026;-72
2022/04/30 05:10:22;;;;;;;21.58;8.57;;;;;;;;;;5007436;28;20382;-72
2022/04/30 05:12:47;;;;;;;24.05;9.30;;;;;;;;;;5001362;28;20279;-72
2022/04/30 05:15:13;;;;;;;20.65;9.30;;;;;;;;;;5007615;28;20514;-72
2022/04/30 05:17:38;;;;;;;23.92;9.15;;;;;;;;;;4988539;28;20026;-72
2022/04/30 05:20:04;;;;;;;22.85;10.27;;;;;;;;;;5003126;28;20420;-72
2022/04/30 05:22:29;;;;;;;20.73;9.40;;;;;;;;;;5009411;28;20283;-72
2022/04/30 05:24:54;;;;;;;22.02;10.07;;;;;;;;;;4985474;28;20018;-72
2022/04/30 05:27:20;;;;;;;23.05;9.38;;;;;;;;;;5006731;28;20040;-72
2022/04/30 05:29:45;;;;;;;22.55;9.50;;;;;;;;;;5004143;28;20068;-72
2022/04/30 05:32:10;;;;;;;20.55;8.98;;;;;;;;;;5000307;28;20484;-72
2022/04/30 05:34:35;;;;;;;22.25;9.23;;;;;;;;;;4986793;28;20268;-72
2022/04/30 05:37:01;;;;;;;27.60;10.30;;;;;;;;;;4999057;28;20014;-72
2022/04/30 05:39:26;;;;;;;24.10;9.43;;;;;;;;;;4998974;28;20482;-73
2022/04/30 05:41:51;;;;;;;23.23;9.45;;;;;;;;;;4998224;28;20445;-73
2022/04/30 05:44:16;;;;;;;29.77;10.75;;;;;;;;;;4996400;28;20284;-73
2022/04/30 05:46:42;;;;;;;31.27;10.47;;;;;;;;;;4996573;28;20379;-72
2022/04/30 05:49:07;;;;;;;26.50;9.75;;;;;;;;;;4998708;28;20320;-73
2022/04/30 05:51:33;;;;;;;25.87;11.80;;;;;;;;;;4993308;28;20019;-73
2022/04/30 05:53:58;;;;;;;25.95;11.00;;;;;;;;;;4997778;28;20279;-73
2022/04/30 05:56:23;;;;;;;29.25;10.50;;;;;;;;;;4998753;28;20379;-73
2022/04/30 05:58:48;;;;;;;29.88;10.93;;;;;;;;;;5000545;28;20465;-73
2022/04/30 06:01:14;;;;;;;34.25;11.60;;;;;;;;;;4998515;28;20022;-73
2022/04/30 06:03:39;;;;;;;26.90;11.15;;;;;;;;;;5006685;28;20476;-73
2022/04/30 06:06:05;;;;;;;34.50;11.15;;;;;;;;;;5002799;28;20025;-73
2022/04/30 06:08:30;;;;;;;28.15;11.25;;;;;;;;;;5003690;28;20014;-73
2022/04/30 06:10:56;;;;;;;27.08;11.25;;;;;;;;;;5005244;28;20065;-73
2022/04/30 06:13:22;;;;;;;22.48;10.23;;;;;;;;;;5005643;28;20021;-73
2022/04/30 06:15:47;;;;;;;28.80;11.45;;;;;;;;;;5012941;28;20035;-73
2022/04/30 06:18:15;;;;;;;26.10;10.95;;;;;;;;;;5004410;28;20038;-73
2022/04/30 06:20:40;;;;;;;29.88;11.55;;;;;;;;;;5007507;28;20278;-73
2022/04/30 06:23:06;;;;;;;25.13;10.50;;;;;;;;;;5003954;28;20030;-73
2022/04/30 06:25:31;;;;;;;22.75;10.95;;;;;;;;;;5006766;28;20368;-73
2022/04/30 06:27:57;;;;;;;24.90;10.90;;;;;;;;;;5001394;28;20599;-73
2022/04/30 06:30:22;;;;;;;19.88;10.20;;;;;;;;;;5009766;28;20036;-73
2022/04/30 06:32:48;;;;;;;24.30;9.93;;;;;;;;;;5008053;28;20022;-73
2022/04/30 06:35:13;;;;;;;24.63;10.70;;;;;;;;;;5008211;28;20049;-72
2022/04/30 06:37:38;;;;;;;23.17;10.33;;;;;;;;;;4999833;28;20487;-73
2022/04/30 06:40:05;;;;;;;24.50;9.80;;;;;;;;;;5000964;28;20275;-73
2022/04/30 06:42:37;;;;;;;23.73;9.40;;;;;;;;;;5002932;28;20438;-73
2022/04/30 06:45:03;;;;;;;26.27;10.32;;;;;;;;;;5001963;28;20034;-73
2022/04/30 06:47:28;;;;;;;27.55;11.73;;;;;;;;;;5004745;28;20119;-72
2022/04/30 06:49:53;;;;;;;23.53;9.50;;;;;;;;;;5007509;28;20030;-73
2022/04/30 06:52:18;;;;;;;19.60;9.30;;;;;;;;;;4995836;28;21591;-72
2022/04/30 06:57:27;;;;;;;16.55;8.73;;;;;;;;;;4998959;28;20313;-72
2022/04/30 06:59:54;;;;;;;18.30;8.73;;;;;;;;;;4999562;28;20045;-72
2022/04/30 07:02:22;;;;;;;19.73;7.70;;;;;;;;;;4998257;28;21311;-72
2022/04/30 07:04:49;;;;;;;22.38;8.73;;;;;;;;;;5003622;28;20502;-72
2022/04/30 07:07:15;;;;;;;14.10;7.93;;;;;;;;;;5000591;28;20022;-72
2022/04/30 07:09:40;;;;;;;14.77;7.85;;;;;;;;;;4998145;28;20027;-72
2022/04/30 07:12:07;;;;;;;17.98;7.45;;;;;;;;;;4994746;28;20022;-72
2022/04/30 07:14:40;;;;;;;15.43;6.97;;;;;;;;;;4988660;28;20033;-72
2022/04/30 07:17:06;;;;;;;14.47;7.23;;;;;;;;;;4998975;28;20088;-73
2022/04/30 07:19:31;;;;;;;16.63;7.40;;;;;;;;;;4999429;28;20476;-71
2022/04/30 07:21:57;;;;;;;16.17;7.63;;;;;;;;;;4996962;28;20080;-74
2022/04/30 07:24:22;;;;;;;13.82;7.75;;;;;;;;;;5003892;28;20052;-71
2022/04/30 07:26:47;;;;;;;18.87;7.73;;;;;;;;;;5004762;28;20057;-72
2022/04/30 07:29:12;;;;;;;14.02;8.32;;;;;;;;;;5001410;28;20797;-73
2022/04/30 07:31:37;;;;;;;17.35;8.85;;;;;;;;;;5010807;28;20357;-71
2022/04/30 07:34:04;;;;;;;17.37;9.10;;;;;;;;;;5003367;28;20104;-72
2022/04/30 07:36:29;;;;;;;19.08;10.02;;;;;;;;;;5001491;28;20274;-72
2022/04/30 07:38:55;;;;;;;16.08;8.90;;;;;;;;;;4995662;28;20026;-72
2022/04/30 07:41:20;;;;;;;16.73;8.82;;;;;;;;;;4998369;28;20041;-71
2022/04/30 07:43:45;;;;;;;17.77;7.57;;;;;;;;;;4980982;28;21162;-69
2022/04/30 07:46:10;;;;;;;19.83;8.73;;;;;;;;;;4998086;28;20469;-73
2022/04/30 07:48:35;;;;;;;16.93;9.43;;;;;;;;;;5000244;28;20097;-70
2022/04/30 07:51:01;;;;;;;19.73;9.25;;;;;;;;;;4999610;28;20310;-71
2022/04/30 07:53:26;;;;;;;20.00;9.30;;;;;;;;;;5004243;28;20034;-70
2022/04/30 07:55:52;;;;;;;15.35;9.00;;;;;;;;;;5003121;28;20641;-72
2022/04/30 07:58:18;;;;;;;20.17;8.82;;;;;;;;;;5001011;28;20116;-70
2022/04/30 08:00:43;;;;;;;26.92;9.48;;;;;;;;;;5001765;28;20036;-71
2022/04/30 08:03:08;;;;;;;21.35;10.07;;;;;;;;;;5002893;28;20026;-71
2022/04/30 08:05:34;;;;;;;19.90;9.80;;;;;;;;;;5001267;28;20424;-70
2022/04/30 08:07:59;;;;;;;20.95;9.68;;;;;;;;;;5000528;28;21423;-70
2022/04/30 08:10:24;;;;;;;20.58;9.43;;;;;;;;;;5004446;28;20041;-70
2022/04/30 08:12:54;;;;;;;15.03;8.33;;;;;;;;;;4999714;28;20014;-70
2022/04/30 08:15:19;;;;;;;21.60;8.27;;;;;;;;;;5005045;28;20306;-70
2022/04/30 08:17:44;;;;;;;23.70;9.15;;;;;;;;;;5006307;28;20061;-71
2022/04/30 08:20:10;;;;;;;15.63;7.97;;;;;;;;;;5014314;28;20044;-70
2022/04/30 08:22:35;;;;;;;13.30;7.80;;;;;;;;;;5009760;28;20034;-71
2022/04/30 08:25:01;;;;;;;14.63;7.90;;;;;;;;;;5005377;28;20333;-70
2022/04/30 08:27:26;;;;;;;17.73;8.70;;;;;;;;;;5005349;28;20034;-70
2022/04/30 08:29:51;;;;;;;16.38;8.82;;;;;;;;;;4998370;28;20026;-70
2022/04/30 08:32:16;;;;;;;53.17;9.60;;;;;;;;;;5012358;28;20369;-70
2022/04/30 08:34:42;;;;;;;15.02;8.48;;;;;;;;;;5009585;28;20025;-70
2022/04/30 08:37:07;;;;;;;17.15;8.15;;;;;;;;;;5003430;28;20077;-71
2022/04/30 08:39:32;;;;;;;18.10;8.53;;;;;;;;;;5016173;28;20037;-70
2022/04/30 08:41:58;;;;;;;14.93;8.63;;;;;;;;;;5004645;28;20034;-71
2022/04/30 08:44:23;;;;;;;16.65;8.80;;;;;;;;;;5010440;28;20259;-71
2022/04/30 08:46:48;;;;;;;11.23;7.78;;;;;;;;;;5011298;28;20379;-70
2022/04/30 08:49:13;;;;;;;24.02;8.70;;;;;;;;;;5020101;28;20108;-70
2022/04/30 08:51:39;;;;;;;12.20;7.23;;;;;;;;;;4997922;28;20049;-70
2022/04/30 08:54:04;;;;;;;17.30;8.20;;;;;;;;;;4997290;28;20030;-70
2022/04/30 08:56:29;;;;;;;20.55;9.25;;;;;;;;;;5000104;28;20757;-70
2022/04/30 08:59:01;;;;;;;11.40;6.90;;;;;;;;;;4998183;28;20037;-71
2022/04/30 09:01:27;;;;;;;18.52;8.60;;;;;;;;;;4996001;28;20099;-72
2022/04/30 09:03:54;;;;;;;17.08;7.75;;;;;;;;;;4996559;28;20456;-72
2022/04/30 09:06:19;;;;;;;16.63;7.63;;;;;;;;;;5015182;28;20034;-72
2022/04/30 09:08:48;;;;;;;26.37;8.80;;;;;;;;;;5008522;28;20037;-72
2022/04/30 09:11:13;;;;;;;17.08;7.45;;;;;;;;;;4998362;28;20266;-72
2022/04/30 09:13:43;;;;;;;14.73;7.90;;;;;;;;;;4985135;28;20065;-72
2022/04/30 09:16:22;;;;;;;34.55;7.70;;;;;;;;;;4983811;28;20057;-71
2022/04/30 09:18:48;;;;;;;18.33;7.30;;;;;;;;;;5003320;28;20044;-72
2022/04/30 09:21:14;;;;;;;43.00;8.77;;;;;;;;;;5007965;28;20034;-77
2022/04/30 09:23:39;;;;;;;13.23;7.60;;;;;;;;;;5007208;28;20052;-69
2022/04/30 09:26:05;;;;;;;14.63;6.60;;;;;;;;;;5002280;28;20034;-69
2022/04/30 09:28:31;;;;;;;10.27;6.47;;;;;;;;;;5001207;28;20283;-68
2022/04/30 09:31:06;;;;;;;16.45;7.03;;;;;;;;;;5001517;28;20408;-69
2022/04/30 09:33:32;;;;;;;28.60;6.85;;;;;;;;;;4998288;28;20104;-76
2022/04/30 09:38:44;;;;;;;13.63;6.57;;;;;;;;;;5000792;28;20059;-71
2022/04/30 09:41:09;;;;;;;11.25;6.25;;;;;;;;;;5009751;28;20029;-71
2022/04/30 09:43:34;;;;;;;7.72;5.63;;;;;;;;;;5008674;28;20053;-71
2022/04/30 09:46:00;;;;;;;10.98;6.60;;;;;;;;;;5009347;28;20042;-73
2022/04/30 09:53:57;;;;;;;12.23;6.03;;;;;;;;;;5009142;28;19952;-69
2022/04/30 09:56:44;;;;;;;10.77;7.63;;;;;;;;;;5010029;28;20029;-68
2022/04/30 09:59:11;;;;;;;15.75;7.35;;;;;;;;;;5005044;28;20117;-73
2022/04/30 10:01:39;;;;;;;19.63;7.78;;;;;;;;;;4991207;28;20384;-70
2022/04/30 10:04:07;;;;;;;11.10;6.18;;;;;;;;;;5011210;28;20048;-70
2022/04/30 10:06:32;;;;;;;10.93;6.50;;;;;;;;;;5007786;28;20757;-69
2022/04/30 10:08:57;;;;;;;13.20;6.45;;;;;;;;;;5008711;28;20033;-70
2022/04/30 10:11:41;;;;;;;11.55;6.82;;;;;;;;;;5004738;28;20068;-68
2022/04/30 10:14:15;;;;;;;12.60;5.60;;;;;;;;;;5005531;28;20440;-71
2022/04/30 10:16:42;;;;;;;9.52;5.55;;;;;;;;;;5007980;28;20029;-70
2022/04/30 10:19:14;;;;;;;11.50;6.28;;;;;;;;;;5008240;28;20113;-70
2022/04/30 10:21:39;;;;;;;13.85;6.45;;;;;;;;;;5004422;28;20022;-69
2022/04/30 10:24:05;;;;;;;15.23;7.57;;;;;;;;;;5003950;28;20033;-72
2022/04/30 10:26:31;;;;;;;13.48;7.40;;;;;;;;;;5004165;28;20535;-70
2022/04/30 10:28:57;;;;;;;13.15;7.20;;;;;;;;;;4999805;28;20021;-71
2022/04/30 10:31:22;;;;;;;12.90;6.82;;;;;;;;;;5004576;28;20057;-72
2022/04/30 10:33:48;;;;;;;11.30;7.70;;;;;;;;;;5005838;28;20055;-70
2022/04/30 10:36:13;;;;;;;8.23;6.72;;;;;;;;;;5005831;28;20749;-71
2022/04/30 10:38:39;;;;;;;12.47;6.57;;;;;;;;;;5007054;28;20022;-70
2022/04/30 10:41:08;;;;;;;10.27;7.05;;;;;;;;;;5001850;28;20259;-70
2022/04/30 10:43:37;;;;;;;11.25;6.95;;;;;;;;;;5001123;28;20053;-71
2022/04/30 10:46:03;;;;;;;10.23;5.25;;;;;;;;;;5006775;28;20018;-73
2022/04/30 10:48:29;;;;;;;10.05;6.25;;;;;;;;;;5002500;28;20061;-68
2022/04/30 10:51:03;;;;;;;8.02;6.15;;;;;;;;;;5001279;28;20117;-73
2022/04/30 10:53:28;;;;;;;;;;;;;;;;;;5002441;28;20025;-72
2022/04/30 10:55:54;;;;;;;9.73;4.93;;;;;;;;;;5002752;28;19913;-73
2022/04/30 10:58:26;;;;;;;8.52;5.30;;;;;;;;;;5001280;28;20413;-70
2022/04/30 11:00:51;;;;;;;10.00;6.55;;;;;;;;;;5006776;28;20044;-72
2022/04/30 11:03:17;;;;;;;9.10;5.47;;;;;;;;;;5005216;28;20029;-70
2022/04/30 11:05:43;;;;;;;8.60;5.20;;;;;;;;;;5007915;28;20097;-71
2022/04/30 11:08:09;;;;;;;10.52;5.60;;;;;;;;;;5013055;28;20013;-71
2022/04/30 11:10:34;;;;;;;10.27;6.25;;;;;;;;;;5014276;28;20072;-70
2022/04/30 11:13:03;;;;;;;11.43;6.40;;;;;;;;;;4999411;28;20026;-71
2022/04/30 11:15:28;;;;;;;10.68;6.38;;;;;;;;;;5002211;28;20986;-71
2022/04/30 11:17:57;;;;;;;9.10;6.50;;;;;;;;;;4997909;28;20029;-70
2022/04/30 11:20:22;;;;;;;9.32;6.38;;;;;;;;;;5002481;28;20283;-70
2022/04/30 11:22:54;;;;;;;11.02;5.70;;;;;;;;;;5007138;28;20049;-71
2022/04/30 11:25:19;;;;;;;8.02;5.28;;;;;;;;;;4986874;28;20446;-71
2022/04/30 11:27:45;;;;;;;8.80;5.28;;;;;;;;;;5000912;28;20030;-70
2022/04/30 11:30:10;;;;;;;7.67;5.83;;;;;;;;;;5005331;28;20052;-70
2022/04/30 11:32:35;;;;;;;10.30;5.97;;;;;;;;;;5006775;28;20255;-70
2022/04/30 11:35:02;;;;;;;11.95;6.25;;;;;;;;;;5012933;28;20040;-70
2022/04/30 11:37:36;;;;;;;7.63;5.47;;;;;;;;;;5009068;28;20056;-72
2022/04/30 11:40:05;;;;;;;10.82;6.57;;;;;;;;;;5004490;28;20045;-70
2022/04/30 11:42:30;;;;;;;9.98;7.25;;;;;;;;;;5004547;28;20476;-70
2022/04/30 11:44:55;;;;;;;8.70;6.07;;;;;;;;;;5005349;28;20032;-70
2022/04/30 11:47:21;;;;;;;15.13;6.50;;;;;;;;;;5004787;28;20897;-70
2022/04/30 11:49:46;;;;;;;11.23;6.32;;;;;;;;;;5006482;28;20373;-71
2022/04/30 11:52:11;;;;;;;9.88;6.57;;;;;;;;;;5004847;28;20014;-71
2022/04/30 11:54:38;;;;;;;10.95;5.78;;;;;;;;;;5007857;28;20032;-69
2022/04/30 11:57:04;;;;;;;9.32;6.78;;;;;;;;;;5017779;28;20022;-69
2022/04/30 11:59:30;;;;;;;22.42;8.00;;;;;;;;;;5001720;28;20095;-70
2022/04/30 12:01:58;;;;;;;17.50;7.38;;;;;;;;;;5004663;28;20079;-70
2022/04/30 12:04:23;;;;;;;15.48;7.05;;;;;;;;;;5008309;28;20030;-69
2022/04/30 12:06:57;;;;;;;10.83;6.70;;;;;;;;;;5004662;28;20029;-70
2022/04/30 12:09:27;;;;;;;9.85;6.35;;;;;;;;;;5008925;28;20318;-70
2022/04/30 12:11:53;;;;;;;11.23;6.35;;;;;;;;;;4996660;28;20655;-70
2022/04/30 12:14:19;;;;;;;10.55;5.93;;;;;;;;;;5006123;28;20029;-71
2022/04/30 12:16:45;;;;;;;11.60;6.50;;;;;;;;;;5006505;28;20092;-70
2022/04/30 12:24:58;;;;;;;12.55;7.25;;;;;;;;;;5008735;28;20384;-70
2022/04/30 12:27:23;;;;;;;10.73;6.85;;;;;;;;;;5005506;28;20034;-70
2022/04/30 12:30:01;;;;;;;10.27;6.80;;;;;;;;;;5003851;28;20050;-71
2022/04/30 12:32:26;;;;;;;15.07;7.63;;;;;;;;;;5002004;28;20059;-71
2022/04/30 12:34:51;;;;;;;10.40;6.93;;;;;;;;;;5006211;28;20025;-71
2022/04/30 12:37:16;;;;;;;10.90;6.70;;;;;;;;;;5004760;28;20311;-70
2022/04/30 12:39:42;;;;;;;12.13;7.07;;;;;;;;;;5007926;28;20026;-68
2022/04/30 12:42:09;;;;;;;21.08;8.93;;;;;;;;;;5000850;28;20708;-69
2022/04/30 12:44:34;;;;;;;16.83;7.28;;;;;;;;;;5015739;28;20108;-69
2022/04/30 12:46:59;;;;;;;11.68;6.68;;;;;;;;;;5010010;28;20031;-71
2022/04/30 12:49:25;;;;;;;13.40;6.63;;;;;;;;;;5013992;28;20108;-71
2022/04/30 12:51:50;;;;;;;8.82;6.20;;;;;;;;;;5004699;28;20033;-70
2022/04/30 12:54:16;;;;;;;14.20;6.30;;;;;;;;;;5004213;28;20426;-69
2022/04/30 12:56:42;;;;;;;13.43;6.82;;;;;;;;;;5005231;28;20290;-69
2022/04/30 12:59:07;;;;;;;11.60;6.30;;;;;;;;;;5003399;28;20369;-67
2022/04/30 13:01:34;;;;;;;16.08;6.97;;;;;;;;;;5002817;28;20028;-69
2022/04/30 13:03:59;;;;;;;13.13;6.88;;;;;;;;;;5006759;28;20037;-69
2022/04/30 13:06:25;;;;;;;11.45;6.43;;;;;;;;;;5011421;28;20029;-68
2022/04/30 13:14:18;;;;;;;14.57;6.55;;;;;;;;;;5006738;28;20113;-71
2022/04/30 13:16:43;;;;;;;10.70;6.33;;;;;;;;;;5009715;28;20025;-70
2022/04/30 13:19:10;;;;;;;12.70;6.83;;;;;;;;;;5004800;28;20034;-71
2022/04/30 13:21:35;;;;;;;16.45;7.60;;;;;;;;;;5001072;28;20399;-76
2022/04/30 13:24:00;;;;;;;10.50;6.10;;;;;;;;;;5003494;28;20106;-70
2022/04/30 13:26:26;;;;;;;13.18;6.78;;;;;;;;;;5004747;28;20026;-70
2022/04/30 13:28:51;;;;;;;12.05;6.38;;;;;;;;;;5015298;28;20055;-70
2022/04/30 13:31:16;;;;;;;9.70;6.70;;;;;;;;;;5006917;28;20053;-70
2022/04/30 13:33:41;;;;;;;11.43;7.75;;;;;;;;;;5008499;28;20018;-71
2022/04/30 13:36:09;;;;;;;9.05;6.43;;;;;;;;;;5009063;28;20083;-70
2022/04/30 13:38:34;;;;;;;13.75;6.82;;;;;;;;;;5002522;28;20371;-71
2022/04/30 13:41:01;;;;;;;10.05;5.57;;;;;;;;;;5010239;28;20030;-70
2022/04/30 13:43:26;;;;;;;9.18;5.55;;;;;;;;;;5008732;28;20026;-70
2022/04/30 13:45:52;;;;;;;6.90;5.05;;;;;;;;;;5013302;28;20452;-70
2022/04/30 13:48:18;;;;;;;8.05;5.28;;;;;;;;;;5002217;28;20112;-70
2022/04/30 13:50:43;;;;;;;15.00;6.40;;;;;;;;;;5009813;28;20028;-71
2022/04/30 13:53:08;;;;;;;14.87;5.67;;;;;;;;;;5005780;28;20042;-71
2022/04/30 13:55:34;;;;;;;8.23;4.88;;;;;;;;;;5004381;28;20831;-71
2022/04/30 13:57:59;;;;;;;8.65;5.65;;;;;;;;;;5005203;28;20358;-71
2022/04/30 14:00:24;;;;;;;9.60;5.47;;;;;;;;;;5005833;28;20041;-71
2022/04/30 14:02:49;;;;;;;6.73;4.13;;;;;;;;;;5006623;28;20025;-71
2022/04/30 14:05:15;;;;;;;9.20;5.10;;;;;;;;;;5006866;28;20042;-71
2022/04/30 14:07:40;;;;;;;9.52;4.80;;;;;;;;;;5013428;28;20309;-70
2022/04/30 14:10:06;;;;;;;7.28;5.50;;;;;;;;;;4998255;28;20075;-71
2022/04/30 14:12:31;;;;;;;13.93;5.70;;;;;;;;;;4999715;28;20437;-70
2022/04/30 14:14:57;;;;;;;8.77;5.00;;;;;;;;;;5001418;28;20116;-70
2022/04/30 14:20:13;;;;;;;8.88;5.53;;;;;;;;;;4999005;28;20092;-72
2022/04/30 14:22:39;;;;;;;7.85;5.28;;;;;;;;;;4998092;28;20054;-71
2022/04/30 14:25:06;;;;;;;7.13;4.88;;;;;;;;;;5009201;28;20559;-73
2022/04/30 14:27:31;;;;;;;9.70;5.47;;;;;;;;;;5007274;28;20270;-71
2022/04/30 14:29:56;;;;;;;10.60;5.15;;;;;;;;;;5013865;28;20026;-71
2022/04/30 14:32:22;;;;;;;8.53;4.63;;;;;;;;;;5009262;28;20037;-71
2022/04/30 14:34:47;;;;;;;7.82;5.40;;;;;;;;;;5000845;28;20263;-71
2022/04/30 14:37:13;;;;;;;8.82;4.93;;;;;;;;;;4999102;28;20036;-71
2022/04/30 14:39:41;;;;;;;11.52;5.70;;;;;;;;;;5014108;28;20038;-72
2022/04/30 14:42:07;;;;;;;9.35;5.85;;;;;;;;;;5003329;28;20029;-71
2022/04/30 14:44:32;;;;;;;8.45;4.93;;;;;;;;;;5000182;28;20037;-71
2022/04/30 14:46:57;;;;;;;14.88;6.07;;;;;;;;;;5001878;28;20101;-71
2022/04/30 14:49:22;;;;;;;8.50;5.50;;;;;;;;;;5007529;28;20026;-71
2022/04/30 14:51:48;;;;;;;8.85;5.60;;;;;;;;;;4998552;28;20276;-71
2022/04/30 14:54:13;;;;;;;8.43;5.55;;;;;;;;;;4998262;28;20076;-70
2022/04/30 14:56:38;;;;;;;10.07;5.38;;;;;;;;;;4998812;28;20030;-71
2022/04/30 14:59:03;;;;;;;9.70;5.33;;;;;;;;;;5003825;28;20042;-72
2022/04/30 15:01:28;;;;;;;8.80;5.63;;;;;;;;;;4999541;28;20025;-72
2022/04/30 15:03:54;;;;;;;7.90;5.65;;;;;;;;;;5001811;28;20055;-73
2022/04/30 15:06:19;;;;;;;9.50;5.60;;;;;;;;;;5004450;28;20030;-69
2022/04/30 15:08:44;;;;;;;12.70;6.47;;;;;;;;;;5000859;28;20045;-72
2022/04/30 15:11:09;;;;;;;16.70;6.50;;;;;;;;;;4999691;28;20037;-72